Time;durP1;ratioP1;P1;durP2;ratioP2;P2;SDS_P1;SDS_P2;PMS_P1;PMS_P2;Temp;Humidity;BMP_temperature;BMP_pressure;BME280_temperature;BME280_humidity;BME280_pressure;Samples;Min_cycle;Max_cycle;Signal;HPM_P1;HPM_P2
2021/03/31 00:00:24;;;;;;;11.00;4.03;;;;;;;10.82;59.72;97485.88;4967902;28;20432;-71
2021/03/31 00:02:54;;;;;;;6.57;3.60;;;;;;;10.77;59.72;97472.22;4965165;28;20474;-72
2021/03/31 00:05:23;;;;;;;9.33;4.13;;;;;;;10.87;59.49;97483.91;4967210;28;20456;-72
2021/03/31 00:07:50;;;;;;;8.03;3.90;;;;;;;10.84;59.55;97478.81;4983240;28;20783;-73
2021/03/31 00:10:21;;;;;;;13.40;4.03;;;;;;;10.76;59.99;97480.97;4970895;28;20452;-72
2021/03/31 00:12:49;;;;;;;13.93;5.10;;;;;;;10.74;60.15;97482.78;4969610;28;20834;-71
2021/03/31 00:15:17;;;;;;;8.90;4.17;;;;;;;10.66;60.27;97479.72;4971612;28;20457;-71
2021/03/31 00:17:44;;;;;;;11.80;4.60;;;;;;;10.65;60.14;97472.84;4970592;28;20458;-72
2021/03/31 00:20:13;;;;;;;13.50;4.67;;;;;;;10.58;60.27;97471.44;4966550;28;20923;-71
2021/03/31 00:22:41;;;;;;;10.83;3.50;;;;;;;10.49;60.77;97471.88;4965757;28;20541;-71
2021/03/31 00:25:12;;;;;;;13.50;3.80;;;;;;;10.45;60.99;97470.34;4970913;28;20577;-71
2021/03/31 00:27:40;;;;;;;12.33;3.90;;;;;;;10.46;60.76;97474.63;4963778;28;20540;-71
2021/03/31 00:30:10;;;;;;;6.97;4.23;;;;;;;10.39;61.51;97473.22;4968254;28;20440;-72
2021/03/31 00:32:37;;;;;;;10.77;4.87;;;;;;;10.32;61.26;97471.00;4968431;28;20479;-72
2021/03/31 00:35:05;;;;;;;12.17;4.80;;;;;;;10.23;61.83;97472.25;4969174;28;20909;-71
2021/03/31 00:37:32;;;;;;;10.10;4.47;;;;;;;10.20;62.10;97472.41;4968802;28;20523;-71
2021/03/31 00:39:59;;;;;;;11.83;5.27;;;;;;;10.19;61.96;97468.13;4968667;28;21113;-72
2021/03/31 00:42:27;;;;;;;14.43;6.00;;;;;;;10.10;62.62;97465.94;4968211;28;20815;-72
2021/03/31 00:44:54;;;;;;;10.67;5.33;;;;;;;10.10;62.28;97465.09;4967407;28;20799;-71
2021/03/31 00:47:21;;;;;;;12.10;6.40;;;;;;;10.09;62.57;97466.84;4987627;28;20837;-71
2021/03/31 00:49:48;;;;;;;25.03;5.77;;;;;;;9.97;62.51;97456.13;4983894;28;20467;-71
2021/03/31 00:52:23;;;;;;;8.70;5.20;;;;;;;9.83;63.29;97461.97;4964802;28;20969;-72
2021/03/31 00:54:51;;;;;;;11.53;6.00;;;;;;;9.98;63.17;97469.06;4987759;28;20599;-72
2021/03/31 00:57:18;;;;;;;15.63;7.20;;;;;;;9.88;62.96;97460.00;4956659;28;20838;-70
2021/03/31 00:59:46;;;;;;;14.50;6.30;;;;;;;9.78;63.17;97456.13;4957365;28;20453;-71
2021/03/31 01:02:13;;;;;;;14.67;7.47;;;;;;;9.70;63.88;97458.22;4960938;28;20480;-72
2021/03/31 01:04:40;;;;;;;10.30;5.70;;;;;;;9.59;63.62;97460.44;4966058;28;20462;-70
2021/03/31 01:07:07;;;;;;;10.60;5.13;;;;;;;9.58;63.50;97458.75;4957900;28;20777;-71
2021/03/31 01:09:34;;;;;;;12.30;5.50;;;;;;;9.54;63.74;97462.44;4958402;28;20436;-72
2021/03/31 01:12:10;;;;;;;9.70;5.23;;;;;;;9.55;63.76;97451.13;4956846;28;20847;-71
2021/03/31 01:14:50;;;;;;;10.90;3.97;;;;;;;9.60;63.55;97456.09;4963553;28;20456;-71
2021/03/31 01:17:23;;;;;;;17.40;5.40;;;;;;;9.49;63.75;97448.78;4967905;28;20455;-71
2021/03/31 01:20:27;;;;;;;14.70;4.57;;;;;;;9.47;63.83;97445.41;4969724;28;20505;-70
2021/03/31 01:23:38;;;;;;;8.80;4.23;;;;;;;9.47;63.93;97437.63;4965352;28;20477;-72
2021/03/31 01:26:13;;;;;;;12.80;4.47;;;;;;;9.42;64.33;97446.50;4969221;28;20872;-72
2021/03/31 01:28:54;;;;;;;8.73;4.40;;;;;;;9.40;64.27;97443.13;4964356;28;20860;-72
2021/03/31 01:31:36;;;;;;;20.13;4.13;;;;;;;9.40;64.25;97437.94;4967135;28;20787;-72
2021/03/31 01:34:42;;;;;;;7.60;4.23;;;;;;;9.41;64.54;97426.63;4964517;28;20567;-71
2021/03/31 01:37:14;;;;;;;9.00;4.17;;;;;;;9.45;64.34;97431.63;4977559;28;20575;-70
2021/03/31 01:39:45;;;;;;;6.93;4.00;;;;;;;9.39;64.60;97431.91;4965044;28;20935;-72
2021/03/31 01:42:14;;;;;;;7.30;4.23;;;;;;;9.38;65.01;97427.59;4967021;28;20460;-72
2021/03/31 01:44:44;;;;;;;8.67;4.20;;;;;;;9.45;64.73;97426.44;4967193;28;20888;-73
2021/03/31 01:47:13;;;;;;;7.60;3.70;;;;;;;9.37;64.52;97420.72;4968600;28;21070;-72
2021/03/31 01:49:41;;;;;;;7.97;4.63;;;;;;;9.26;65.28;97415.19;4969518;28;20940;-71
2021/03/31 01:52:12;;;;;;;10.87;5.70;;;;;;;9.29;65.08;97420.22;4980693;28;21182;-71
2021/03/31 01:54:42;;;;;;;28.37;4.97;;;;;;;9.09;65.78;97396.84;4963284;28;20433;-71
2021/03/31 01:57:10;;;;;;;10.30;3.83;;;;;;;9.18;65.79;97414.66;4963159;28;20469;-71
2021/03/31 01:59:38;;;;;;;8.47;3.97;;;;;;;9.11;65.71;97405.44;4962782;28;20776;-72
2021/03/31 02:02:09;;;;;;;10.13;4.97;;;;;;;9.08;66.14;97415.94;4970687;28;20920;-73
2021/03/31 02:04:38;;;;;;;12.00;4.73;;;;;;;9.14;66.08;97402.72;4968197;28;21001;-72
2021/03/31 02:07:07;;;;;;;8.87;5.27;;;;;;;9.09;66.08;97399.47;4955726;28;20935;-71
2021/03/31 02:09:38;;;;;;;9.50;4.40;;;;;;;9.06;66.21;97407.41;4955197;28;20969;-73
2021/03/31 02:12:08;;;;;;;12.30;4.37;;;;;;;9.05;66.23;97402.25;4956293;28;20827;-71
2021/03/31 02:14:39;;;;;;;18.80;4.87;;;;;;;8.89;66.81;97394.31;4958400;28;20457;-71
2021/03/31 02:17:08;;;;;;;7.17;4.63;;;;;;;8.95;66.98;97394.03;4968261;28;20433;-72
2021/03/31 02:19:38;;;;;;;14.50;4.73;;;;;;;8.91;66.97;97387.28;4980167;28;20526;-72
2021/03/31 02:22:08;;;;;;;17.10;4.40;;;;;;;8.97;66.64;97393.97;4955436;28;20428;-73
2021/03/31 02:24:36;;;;;;;7.13;4.03;;;;;;;8.89;67.24;97394.31;4954946;28;20473;-71
2021/03/31 02:27:06;;;;;;;12.13;4.97;;;;;;;8.85;67.18;97392.72;4973188;28;20917;-73
2021/03/31 02:29:33;;;;;;;9.10;4.47;;;;;;;8.80;67.58;97389.50;4992276;28;20443;-71
2021/03/31 02:32:01;;;;;;;8.43;4.77;;;;;;;8.80;67.50;97389.50;4966903;28;20939;-71
2021/03/31 02:34:29;;;;;;;5.77;4.40;;;;;;;8.66;67.61;97373.66;4969054;28;20453;-73
2021/03/31 02:36:57;;;;;;;8.00;4.20;;;;;;;8.48;67.56;97389.97;4964973;28;20834;-72
2021/03/31 02:39:26;;;;;;;7.67;4.07;;;;;;;8.47;68.19;97382.25;4968686;28;20453;-71
2021/03/31 02:41:57;;;;;;;11.23;3.87;;;;;;;8.33;68.52;97375.03;4974050;28;20432;-71
2021/03/31 02:44:25;;;;;;;11.00;4.30;;;;;;;8.36;69.01;97371.50;4985261;28;20530;-72
2021/03/31 02:46:54;;;;;;;7.07;4.57;;;;;;;8.39;68.31;97374.81;4965836;28;20932;-71
2021/03/31 02:49:22;;;;;;;17.00;4.63;;;;;;;8.39;68.18;97372.22;5003457;28;20893;-71
2021/03/31 02:51:49;;;;;;;11.47;4.60;;;;;;;8.46;68.47;97373.66;4967165;28;20445;-73
2021/03/31 02:54:18;;;;;;;7.77;4.40;;;;;;;8.42;67.96;97366.88;4972473;28;20795;-70
2021/03/31 02:56:47;;;;;;;12.13;4.50;;;;;;;8.43;68.40;97363.38;4972360;28;20743;-72
2021/03/31 02:59:16;;;;;;;13.70;4.97;;;;;;;8.44;68.35;97359.91;5003551;28;20944;-73
2021/03/31 03:01:45;;;;;;;12.80;4.37;;;;;;;8.49;68.37;97363.13;4970998;28;21083;-72
2021/03/31 03:04:12;;;;;;;6.70;3.70;;;;;;;8.43;68.42;97358.19;4969670;28;20472;-70
2021/03/31 03:06:39;;;;;;;8.00;4.30;;;;;;;8.48;67.95;97366.63;4968692;28;20912;-69
2021/03/31 03:09:08;;;;;;;8.07;4.77;;;;;;;8.33;68.59;97362.06;4971298;28;20512;-71
2021/03/31 03:11:36;;;;;;;13.77;5.40;;;;;;;8.32;68.54;97363.91;4970945;28;20441;-71
2021/03/31 03:14:07;;;;;;;13.97;5.43;;;;;;;8.20;69.19;97364.38;4968463;28;20979;-71
2021/03/31 03:16:35;;;;;;;10.87;5.50;;;;;;;8.19;69.04;97368.75;4966587;28;20468;-70
2021/03/31 03:19:02;;;;;;;13.93;4.50;;;;;;;8.16;69.41;97362.81;4970418;28;20460;-69
2021/03/31 03:21:30;;;;;;;10.43;4.37;;;;;;;7.91;68.66;97370.72;4978392;28;20943;-71
2021/03/31 03:23:58;;;;;;;19.50;4.50;;;;;;;7.86;69.67;97366.63;4971186;28;20981;-68
2021/03/31 03:26:27;;;;;;;12.27;4.17;;;;;;;7.83;69.61;97367.56;4970126;28;20897;-71
2021/03/31 03:28:54;;;;;;;14.05;4.45;;;;;;;7.80;70.08;97364.25;4966750;28;20465;-70
2021/03/31 03:31:24;;;;;;;15.23;5.03;;;;;;;7.84;69.62;97360.63;5001288;28;20212;-69
2021/03/31 03:33:51;;;;;;;14.07;4.13;;;;;;;7.84;69.71;97363.22;4990710;28;20841;-69
2021/03/31 03:36:19;;;;;;;7.63;4.10;;;;;;;7.86;69.99;97361.44;4959357;28;20684;-73
2021/03/31 03:38:46;;;;;;;8.40;5.10;;;;;;;7.92;70.00;97354.25;4957855;28;20469;-70
2021/03/31 03:41:14;;;;;;;7.05;3.90;;;;;;;7.95;69.81;97351.53;4972270;28;20744;-70
2021/03/31 03:43:42;;;;;;;11.15;4.68;;;;;;;7.96;69.84;97352.38;4966783;28;20272;-70
2021/03/31 03:46:11;;;;;;;7.93;3.87;;;;;;;7.91;70.23;97346.53;4973331;28;20195;-71
2021/03/31 03:48:40;;;;;;;13.30;4.47;;;;;;;7.92;69.80;97343.03;4982386;28;20476;-71
2021/03/31 03:51:08;;;;;;;8.37;3.90;;;;;;;7.99;69.88;97341.88;4971105;28;20190;-70
2021/03/31 03:53:35;;;;;;;18.40;4.68;;;;;;;8.01;69.64;97347.88;4980517;28;20816;-73
2021/03/31 03:56:10;;;;;;;8.80;4.68;;;;;;;8.04;70.11;97352.91;4965221;28;20262;-71
2021/03/31 03:58:38;;;;;;;11.55;4.53;;;;;;;8.07;70.21;97357.97;4972544;28;20249;-72
2021/03/31 04:01:06;;;;;;;7.27;4.27;;;;;;;8.05;69.58;97345.09;4957786;28;20646;-71
2021/03/31 04:03:33;;;;;;;8.90;4.00;;;;;;;7.95;70.38;97353.28;4958333;28;20511;-71
2021/03/31 04:06:02;;;;;;;9.15;4.13;;;;;;;7.91;70.70;97346.53;4978741;28;20190;-70
2021/03/31 04:08:30;;;;;;;10.20;4.23;;;;;;;7.95;70.51;97354.13;4996644;28;20604;-73
2021/03/31 04:10:58;;;;;;;11.80;3.85;;;;;;;7.99;69.94;97349.66;4965525;28;20936;-73
2021/03/31 04:13:28;;;;;;;9.93;4.60;;;;;;;8.04;70.34;97352.91;4967498;28;20760;-69
2021/03/31 04:15:59;;;;;;;12.50;4.77;;;;;;;8.06;69.83;97345.91;4968143;28;20925;-71
2021/03/31 04:18:28;;;;;;;13.43;4.07;;;;;;;8.05;70.39;97352.88;4969532;28;20949;-71
2021/03/31 04:20:58;;;;;;;15.50;4.77;;;;;;;8.07;70.50;97357.97;4968421;28;20494;-71
2021/03/31 04:23:27;;;;;;;7.57;4.37;;;;;;;8.02;70.71;97347.78;4972370;28;20465;-70
2021/03/31 04:25:56;;;;;;;9.38;4.43;;;;;;;7.90;71.06;97355.19;4985106;28;20460;-73
2021/03/31 04:28:25;;;;;;;9.40;4.53;;;;;;;7.79;71.11;97352.22;4966465;28;20931;-71
2021/03/31 04:30:55;;;;;;;9.55;4.22;;;;;;;7.83;71.39;97358.94;4963837;28;20221;-71
2021/03/31 04:33:23;;;;;;;10.83;4.20;;;;;;;7.86;71.01;97354.47;4980956;28;20257;-70
2021/03/31 04:35:52;;;;;;;9.38;4.10;;;;;;;7.91;70.84;97365.53;4972111;28;21139;-72
2021/03/31 04:38:18;;;;;;;12.87;5.03;;;;;;;7.86;70.28;97343.28;4968543;28;20731;-71
2021/03/31 04:40:55;;;;;;;9.43;5.07;;;;;;;7.92;70.63;97358.56;4965302;28;20434;-72
2021/03/31 04:43:24;;;;;;;13.60;5.17;;;;;;;7.80;70.69;97354.72;4964940;28;20921;-71
2021/03/31 04:45:51;;;;;;;17.17;4.10;;;;;;;7.81;70.92;97352.97;4964613;28;20883;-71
2021/03/31 04:48:17;;;;;;;5.18;4.05;;;;;;;7.78;71.03;97347.91;4965235;28;20712;-70
2021/03/31 04:50:44;;;;;;;11.60;4.68;;;;;;;7.82;70.40;97357.25;4966642;28;20783;-72
2021/03/31 04:53:11;;;;;;;6.70;4.10;;;;;;;7.73;70.73;97353.25;4966366;28;20590;-71
2021/03/31 04:55:38;;;;;;;10.20;4.70;;;;;;;7.66;71.27;97361.34;4966540;28;20940;-73
2021/03/31 04:58:06;;;;;;;13.75;4.78;;;;;;;7.63;71.39;97351.09;4964537;28;20225;-73
2021/03/31 05:00:33;;;;;;;8.40;5.30;;;;;;;7.60;71.72;97357.25;4966988;28;20239;-74
2021/03/31 05:03:00;;;;;;;6.70;3.97;;;;;;;7.54;71.63;97359.22;4965879;28;20830;-72
2021/03/31 05:05:27;;;;;;;11.50;5.32;;;;;;;7.56;71.87;97358.25;4981075;28;20517;-73
2021/03/31 05:07:54;;;;;;;8.25;4.63;;;;;;;7.55;71.79;97363.47;4966390;28;20250;-74
2021/03/31 05:10:21;;;;;;;9.98;4.88;;;;;;;7.60;71.61;97356.41;4998955;28;20189;-73
2021/03/31 05:12:48;;;;;;;17.27;4.60;;;;;;;7.56;71.22;97354.81;4967438;28;20213;-70
2021/03/31 05:15:17;;;;;;;11.73;4.50;;;;;;;7.48;71.31;97359.44;4968704;28;20194;-74
2021/03/31 05:17:48;;;;;;;9.75;4.20;;;;;;;7.46;71.33;97346.56;4970062;28;20236;-72
2021/03/31 05:20:16;;;;;;;7.33;3.87;;;;;;;7.58;71.41;97353.84;4980635;28;20552;-70
2021/03/31 05:22:43;;;;;;;12.00;4.70;;;;;;;7.64;71.52;97347.63;4966236;28;20835;-72
2021/03/31 05:25:11;;;;;;;9.93;4.50;;;;;;;7.71;71.48;97356.81;4968857;28;20237;-71
2021/03/31 05:27:38;;;;;;;10.32;4.50;;;;;;;7.77;71.36;97354.00;4967348;28;20738;-71
2021/03/31 05:30:07;;;;;;;21.17;4.50;;;;;;;7.84;70.57;97343.34;4982827;28;20708;-71
2021/03/31 05:32:35;;;;;;;10.52;4.57;;;;;;;7.71;71.52;97343.84;4962606;28;20304;-73
2021/03/31 05:35:03;;;;;;;7.70;4.43;;;;;;;7.77;71.26;97343.63;4979363;28;20194;-73
2021/03/31 05:37:30;;;;;;;11.45;5.60;;;;;;;7.84;71.14;97342.47;4965224;28;20962;-72
2021/03/31 05:39:57;;;;;;;10.73;4.75;;;;;;;7.82;71.66;97331.34;4962046;28;20644;-71
2021/03/31 05:42:24;;;;;;;11.50;4.20;;;;;;;7.85;71.16;97331.22;4966797;28;20744;-72
2021/03/31 05:44:51;;;;;;;17.70;4.60;;;;;;;7.93;71.44;97335.19;4972239;28;20925;-71
2021/03/31 05:47:23;;;;;;;12.30;4.47;;;;;;;8.01;70.81;97327.94;4963573;28;20838;-73
2021/03/31 05:49:53;;;;;;;18.03;4.33;;;;;;;7.96;71.33;97329.88;4981113;28;20438;-72
2021/03/31 05:52:21;;;;;;;9.10;4.80;;;;;;;7.90;71.85;97331.88;4965560;28;20908;-71
2021/03/31 05:54:48;;;;;;;18.63;4.40;;;;;;;7.91;71.73;97330.97;4970304;28;20212;-72
2021/03/31 05:57:18;;;;;;;12.48;4.95;;;;;;;8.07;71.74;97330.31;4964407;28;20833;-72
2021/03/31 05:59:52;;;;;;;11.33;4.80;;;;;;;8.26;70.88;97330.44;4962839;28;20763;-69
2021/03/31 06:02:21;;;;;;;13.93;5.13;;;;;;;8.39;70.23;97320.34;4978576;28;20479;-71
2021/03/31 06:04:52;;;;;;;10.00;4.37;;;;;;;8.56;69.92;97322.22;5001520;28;20898;-71
2021/03/31 06:07:19;;;;;;;11.80;4.90;;;;;;;8.61;69.27;97328.91;4968974;28;20449;-72
2021/03/31 06:10:06;;;;;;;10.57;5.27;;;;;;;8.44;69.36;97323.59;4967321;28;20433;-73
2021/03/31 06:12:34;;;;;;;17.90;3.77;;;;;;;8.40;69.48;97322.00;4969069;28;20472;-72
2021/03/31 06:15:12;;;;;;;9.40;4.97;;;;;;;8.61;69.36;97331.50;4973939;28;20449;-73
2021/03/31 06:17:51;;;;;;;10.10;5.30;;;;;;;8.70;68.83;97323.31;4973706;28;21217;-70
2021/03/31 06:20:40;;;;;;;10.20;4.33;;;;;;;8.83;68.29;97327.06;4970087;28;20570;-72
2021/03/31 06:23:16;;;;;;;8.20;4.30;;;;;;;8.82;68.88;97330.56;4965754;28;21003;-72
2021/03/31 06:25:51;;;;;;;9.27;4.63;;;;;;;8.87;68.63;97338.16;4966035;28;20492;-71
2021/03/31 06:28:29;;;;;;;13.67;4.77;;;;;;;8.38;69.46;97318.66;4967530;28;20777;-71
2021/03/31 06:31:17;;;;;;;10.83;5.47;;;;;;;8.20;69.69;97341.06;4968454;28;20527;-71
2021/03/31 06:33:45;;;;;;;14.30;5.70;;;;;;;8.40;70.04;97337.56;4970725;28;20472;-70
2021/03/31 06:36:15;;;;;;;13.53;5.30;;;;;;;8.68;69.22;97338.09;4987587;28;20999;-73
2021/03/31 06:38:47;;;;;;;12.07;5.03;;;;;;;8.83;68.69;97332.25;4971130;28;20551;-72
2021/03/31 06:41:35;;;;;;;11.87;6.53;;;;;;;9.08;68.87;97332.84;4969906;28;20803;-74
2021/03/31 06:44:14;;;;;;;12.87;6.97;;;;;;;9.29;67.20;97321.50;4959517;28;20982;-75
2021/03/31 06:46:46;;;;;;;12.33;6.10;;;;;;;9.35;67.44;97316.03;4971583;28;20434;-75
2021/03/31 06:49:14;;;;;;;11.80;5.70;;;;;;;9.81;66.80;97320.78;4969631;28;20453;-73
2021/03/31 06:51:42;;;;;;;13.70;6.20;;;;;;;10.42;65.70;97319.53;4967941;28;20893;-72
2021/03/31 06:54:25;;;;;;;14.60;5.83;;;;;;;11.15;63.95;97311.41;4963648;28;20845;-73
2021/03/31 06:56:54;;;;;;;19.13;6.50;;;;;;;11.63;61.94;97314.84;4991262;28;20943;-74
2021/03/31 06:59:30;;;;;;;11.17;6.13;;;;;;;11.61;61.48;97314.09;4970373;28;20924;-71
2021/03/31 07:01:57;;;;;;;20.60;7.63;;;;;;;11.96;61.00;97317.38;4983370;28;20534;-75
2021/03/31 07:04:24;;;;;;;9.77;5.43;;;;;;;12.13;59.74;97315.50;4985864;28;20931;-72
2021/03/31 07:07:06;;;;;;;8.43;5.20;;;;;;;12.31;58.84;97311.88;4960663;28;21141;-73
2021/03/31 07:09:33;;;;;;;11.40;5.33;;;;;;;12.26;59.27;97316.50;4971186;28;20487;-75
2021/03/31 07:12:01;;;;;;;9.30;5.00;;;;;;;12.61;58.48;97312.69;4965602;28;20451;-74
2021/03/31 07:14:30;;;;;;;11.20;5.20;;;;;;;12.78;58.45;97312.53;4984623;28;21100;-74
2021/03/31 07:16:58;;;;;;;13.97;5.90;;;;;;;13.25;57.39;97310.53;4965409;28;20949;-74
2021/03/31 07:19:26;;;;;;;10.43;4.60;;;;;;;13.50;56.47;97315.97;4969819;28;20900;-75
2021/03/31 07:22:11;;;;;;;26.40;6.20;;;;;;;14.00;55.92;97306.59;4968231;28;20456;-74
2021/03/31 07:24:38;;;;;;;9.87;5.30;;;;;;;14.40;55.04;97307.50;4968489;28;20509;-74
2021/03/31 07:27:08;;;;;;;15.53;5.60;;;;;;;14.62;53.93;97299.91;4968731;28;20434;-73
2021/03/31 07:29:37;;;;;;;11.70;5.97;;;;;;;15.20;52.85;97303.75;4971378;28;20896;-73
2021/03/31 07:32:08;;;;;;;15.73;6.77;;;;;;;15.71;51.36;97301.91;4967079;28;20446;-73
2021/03/31 07:34:38;;;;;;;10.70;6.37;;;;;;;16.27;50.85;97302.13;4969792;28;20878;-74
2021/03/31 07:37:07;;;;;;;13.57;7.40;;;;;;;16.91;48.95;97300.81;4968198;28;20526;-74
2021/03/31 07:39:36;;;;;;;17.43;8.50;;;;;;;17.64;47.91;97301.19;4969694;28;20797;-74
2021/03/31 07:42:05;;;;;;;17.60;8.20;;;;;;;18.40;46.00;97293.25;4969261;28;21010;-73
2021/03/31 07:44:35;;;;;;;37.07;9.27;;;;;;;18.97;45.21;97298.97;4986396;28;20460;-74
2021/03/31 07:47:27;;;;;;;22.83;8.20;;;;;;;19.37;44.09;97298.13;4969637;28;20496;-72
2021/03/31 07:49:55;;;;;;;28.97;8.17;;;;;;;19.98;43.65;97294.50;4967677;28;20449;-73
2021/03/31 07:52:22;;;;;;;21.93;7.93;;;;;;;20.20;43.48;97286.38;4970016;28;20929;-72
2021/03/31 07:54:56;;;;;;;30.73;8.20;;;;;;;20.58;43.05;97294.34;4978952;28;20747;-71
2021/03/31 07:57:24;;;;;;;21.20;7.10;;;;;;;20.51;43.19;97287.09;4966946;28;20511;-72
2021/03/31 07:59:52;;;;;;;17.07;7.70;;;;;;;20.56;42.47;97290.97;4973077;28;21061;-72
2021/03/31 08:02:20;;;;;;;13.90;7.47;;;;;;;20.72;43.02;97280.69;4958234;28;20453;-71
2021/03/31 08:04:48;;;;;;;26.23;7.70;;;;;;;20.07;43.52;97285.78;4971128;28;20479;-73
2021/03/31 08:07:20;;;;;;;15.23;6.53;;;;;;;20.35;44.05;97289.44;4970208;28;20477;-74
2021/03/31 08:09:48;;;;;;;21.70;6.97;;;;;;;20.43;43.66;97284.28;4968029;28;20446;-73
2021/03/31 08:12:30;;;;;;;16.17;6.30;;;;;;;21.14;43.06;97284.69;4969766;28;20788;-71
2021/03/31 08:14:58;;;;;;;11.77;6.67;;;;;;;21.36;43.12;97294.94;4970802;28;20919;-71
2021/03/31 08:17:33;;;;;;;45.23;23.27;;;;;;;20.74;44.80;97293.75;4967673;28;20819;-74
2021/03/31 08:20:01;;;;;;;13.87;7.27;;;;;;;21.19;44.11;97289.56;4969853;28;20880;-72
2021/03/31 08:22:37;;;;;;;17.20;7.40;;;;;;;21.01;44.59;97291.28;4968049;28;20535;-73
2021/03/31 08:25:15;;;;;;;15.07;6.30;;;;;;;20.94;45.14;97293.66;4981122;28;20956;-72
2021/03/31 08:27:57;;;;;;;19.50;7.20;;;;;;;21.18;44.75;97296.69;4964404;28;20553;-71
2021/03/31 08:30:25;;;;;;;21.00;7.60;;;;;;;20.61;45.53;97287.94;4982852;28;20934;-73
2021/03/31 08:32:54;;;;;;;14.57;7.63;;;;;;;20.09;47.29;97288.28;4957145;28;20475;-71
2021/03/31 08:35:22;;;;;;;17.30;7.30;;;;;;;19.94;47.18;97266.66;4957724;28;20430;-73
2021/03/31 08:37:49;;;;;;;15.93;7.33;;;;;;;20.08;47.80;97284.81;4976729;28;20496;-71
2021/03/31 08:40:18;;;;;;;11.87;7.10;;;;;;;19.89;47.59;97283.91;4968060;28;20471;-71
2021/03/31 08:43:03;;;;;;;15.87;8.63;;;;;;;20.00;46.68;97281.97;4965294;28;20465;-72
2021/03/31 08:45:34;;;;;;;16.50;7.80;;;;;;;20.17;47.24;97276.06;4964591;28;20442;-71
2021/03/31 08:48:01;;;;;;;19.83;8.30;;;;;;;20.55;47.28;97278.72;4966877;28;20912;-73
2021/03/31 08:50:36;;;;;;;21.20;7.80;;;;;;;20.97;45.20;97269.53;4965093;28;20540;-71
2021/03/31 08:53:06;;;;;;;21.23;8.17;;;;;;;21.24;45.49;97272.28;4968352;28;20935;-71
2021/03/31 08:55:36;;;;;;;17.50;7.17;;;;;;;21.20;44.28;97270.06;4968568;28;20861;-73
2021/03/31 08:58:10;;;;;;;18.87;7.03;;;;;;;21.11;43.86;97261.16;4981380;28;21160;-71
2021/03/31 09:00:51;;;;;;;12.80;7.30;;;;;;;21.05;44.02;97271.50;4975432;28;20750;-72
2021/03/31 09:03:19;;;;;;;30.03;8.20;;;;;;;20.91;43.84;97270.09;4966896;28;20492;-70
2021/03/31 09:06:03;;;;;;;24.23;7.07;;;;;;;21.13;43.18;97269.78;4980630;28;20440;-70
2021/03/31 09:08:31;;;;;;;17.80;7.83;;;;;;;21.19;43.15;97269.22;4964573;28;20833;-71
2021/03/31 09:11:01;;;;;;;16.73;7.27;;;;;;;21.24;42.65;97266.13;4969582;28;20817;-72
2021/03/31 09:13:34;;;;;;;17.20;7.03;;;;;;;21.60;42.43;97266.16;4964951;28;20465;-70
2021/03/31 09:16:07;;;;;;;12.87;8.03;;;;;;;21.98;41.67;97257.19;4967562;28;20935;-71
2021/03/31 09:18:39;;;;;;;15.30;8.03;;;;;;;22.15;41.13;97248.44;4967692;28;20937;-71
2021/03/31 09:21:06;;;;;;;20.53;6.90;;;;;;;22.46;40.85;97250.59;4968645;28;20527;-72
2021/03/31 09:23:34;;;;;;;22.33;7.30;;;;;;;22.15;40.70;97257.22;4964155;28;20505;-71
2021/03/31 09:26:03;;;;;;;18.10;7.80;;;;;;;22.40;40.70;97256.50;4996141;28;20917;-71
2021/03/31 09:28:32;;;;;;;16.83;6.77;;;;;;;22.66;38.93;97249.47;4980353;28;20475;-73
2021/03/31 09:31:07;;;;;;;18.70;7.07;;;;;;;22.54;38.44;97253.34;4968769;28;20884;-72
2021/03/31 09:33:41;;;;;;;25.80;15.87;;;;;;;22.51;37.86;97248.34;4969088;28;20815;-73
2021/03/31 09:36:13;;;;;;;13.93;7.30;;;;;;;22.98;36.71;97244.44;4966331;28;21029;-71
2021/03/31 09:38:42;;;;;;;14.67;6.50;;;;;;;23.32;37.59;97237.34;4966988;28;20497;-72
2021/03/31 09:41:12;;;;;;;12.07;6.40;;;;;;;23.45;36.99;97237.75;4966965;28;20882;-72
2021/03/31 09:43:42;;;;;;;15.43;7.30;;;;;;;23.71;36.56;97234.06;4964233;28;20888;-69
2021/03/31 09:46:10;;;;;;;12.17;6.90;;;;;;;23.94;35.62;97234.38;4967045;28;20942;-73
2021/03/31 09:48:38;;;;;;;13.07;7.27;;;;;;;23.94;36.54;97223.72;4967818;28;20528;-71
2021/03/31 09:51:12;;;;;;;14.93;7.00;;;;;;;24.04;35.79;97208.44;4983185;28;20433;-73
2021/03/31 09:53:40;;;;;;;13.87;6.97;;;;;;;24.03;36.05;97220.91;4965541;28;20457;-71
2021/03/31 09:56:27;;;;;;;17.47;7.70;;;;;;;24.37;35.81;97220.84;4962803;28;20945;-71
2021/03/31 09:58:55;;;;;;;15.17;7.70;;;;;;;24.55;35.32;97218.84;4967569;28;20464;-71
2021/03/31 10:01:26;;;;;;;23.73;7.10;;;;;;;25.16;34.36;97213.81;4967793;28;20638;-71
2021/03/31 10:03:54;;;;;;;17.80;7.37;;;;;;;25.19;34.34;97218.84;4981685;28;20963;-73
2021/03/31 10:06:24;;;;;;;15.80;7.23;;;;;;;25.43;34.22;97216.13;4964736;28;20463;-71
2021/03/31 10:08:52;;;;;;;13.27;6.60;;;;;;;25.55;34.22;97209.44;4957992;28;20508;-71
2021/03/31 10:11:35;;;;;;;8.90;5.60;;;;;;;26.37;33.98;97207.84;4955163;28;20446;-71
2021/03/31 10:14:04;;;;;;;16.53;7.43;;;;;;;27.13;32.18;97202.41;4967327;28;20503;-70
2021/03/31 10:16:33;;;;;;;17.37;7.27;;;;;;;27.42;32.34;97199.81;4965205;28;20465;-73
2021/03/31 10:19:03;;;;;;;14.97;6.30;;;;;;;28.16;31.84;97195.03;4968910;28;20775;-71
2021/03/31 10:21:31;;;;;;;19.67;6.10;;;;;;;28.78;31.03;97191.59;4956247;28;20437;-70
2021/03/31 10:23:59;;;;;;;21.80;5.97;;;;;;;29.24;30.51;97194.69;4966117;28;21007;-72
2021/03/31 10:26:48;;;;;;;15.23;6.83;;;;;;;29.65;30.33;97191.03;4964789;28;20842;-72
2021/03/31 10:29:36;;;;;;;20.70;7.20;;;;;;;29.20;28.77;97186.19;4966124;28;20916;-73
2021/03/31 10:32:16;;;;;;;14.60;7.13;;;;;;;29.10;31.02;97180.31;4963903;28;20947;-72
2021/03/31 10:34:45;;;;;;;17.40;6.60;;;;;;;29.52;30.83;97180.22;4965708;28;20901;-71
2021/03/31 10:37:18;;;;;;;13.03;7.47;;;;;;;30.01;31.23;97183.56;4964390;28;20479;-72
2021/03/31 10:40:16;;;;;;;13.50;6.50;;;;;;;30.38;30.98;97176.88;4964957;28;20823;-71
2021/03/31 10:48:55;;;;;;;19.57;7.13;;;;;;;31.64;29.06;97172.94;4981742;28;20486;-72
2021/03/31 10:51:30;;;;;;;19.03;7.33;;;;;;;31.95;29.12;97165.81;4965681;28;20939;-71
2021/03/31 10:54:00;;;;;;;15.23;6.93;;;;;;;32.21;30.06;97159.47;4969742;28;20973;-73
2021/03/31 10:56:28;;;;;;;14.23;7.83;;;;;;;32.52;28.89;97165.75;4967340;28;21246;-72
2021/03/31 10:58:55;;;;;;;12.70;7.27;;;;;;;32.68;27.78;97159.03;4984818;28;20458;-72
2021/03/31 11:01:24;;;;;;;14.40;7.63;;;;;;;32.46;28.61;97158.53;4966188;28;21135;-72
2021/03/31 11:03:54;;;;;;;10.80;7.47;;;;;;;32.77;28.79;97158.56;4973703;28;20929;-71
2021/03/31 11:06:21;;;;;;;12.03;6.87;;;;;;;33.08;28.00;97158.50;4971034;28;20440;-71
2021/03/31 11:08:51;;;;;;;13.00;7.00;;;;;;;32.81;29.06;97159.78;4966875;28;20469;-72
2021/03/31 11:11:18;;;;;;;12.57;7.20;;;;;;;32.73;28.20;97151.91;4958945;28;20446;-72
2021/03/31 11:13:46;;;;;;;15.70;7.90;;;;;;;32.87;26.59;97150.81;4962685;28;20469;-70
2021/03/31 11:16:14;;;;;;;9.53;6.50;;;;;;;32.96;28.09;97146.78;4984309;28;20970;-72
2021/03/31 11:18:55;;;;;;;22.23;10.13;;;;;;;33.45;27.22;97144.06;4970939;28;21055;-74
2021/03/31 11:27:01;;;;;;;13.93;7.93;;;;;;;33.52;27.01;97132.09;4956994;28;20529;-73
2021/03/31 11:29:28;;;;;;;16.07;9.10;;;;;;;33.40;26.43;97127.69;4966273;28;20940;-72
2021/03/31 11:31:55;;;;;;;12.53;8.43;;;;;;;33.31;27.41;97134.44;4969378;28;20742;-73
2021/03/31 11:34:24;;;;;;;24.17;15.83;;;;;;;33.01;26.25;97133.44;4950070;28;20826;-72
2021/03/31 11:36:53;;;;;;;25.20;12.50;;;;;;;31.99;27.48;97129.34;4951609;28;20591;-74
2021/03/31 11:39:20;;;;;;;15.30;8.30;;;;;;;32.04;29.40;97129.53;4950400;28;20525;-72
2021/03/31 11:41:47;;;;;;;13.67;8.43;;;;;;;32.54;28.51;97130.50;4952302;28;20441;-72
2021/03/31 11:44:14;;;;;;;23.50;10.57;;;;;;;31.96;27.24;97127.06;4968882;28;20457;-73
2021/03/31 11:46:41;;;;;;;15.87;8.27;;;;;;;30.91;29.46;97117.56;4969745;28;20443;-71
2021/03/31 11:49:08;;;;;;;17.93;9.10;;;;;;;30.95;29.52;97108.06;4966639;28;20489;-71
2021/03/31 11:51:36;;;;;;;12.20;6.37;;;;;;;31.71;28.80;97101.91;4965549;28;20920;-73
2021/03/31 11:54:03;;;;;;;17.27;6.23;;;;;;;31.72;28.67;97108.94;4968656;28;21039;-73
2021/03/31 11:56:30;;;;;;;13.37;6.90;;;;;;;31.39;28.39;97100.13;4960258;28;20917;-72
2021/03/31 11:58:59;;;;;;;14.50;6.20;;;;;;;31.81;28.03;97104.13;4956573;28;20556;-73